Terminal Aerodrome Forecast
Issued by NWS

Home | Current Version | Previous Version | Text Only | Print | Product List | Glossary On
Versions: 1 2 3 4 5 6 7 8 9 10 11 12 13 14 15 16 17
000
FTUS43 KPAH 241120
TAFCGI
TAF
KCGI 241120Z 2412/2512 18012G20KT P6SM SCT025 BKN150
     FM241700 21015G25KT P6SM SCT015 BKN030
     FM242300 27012G20KT P6SM SCT030 BKN100
     FM250500 28013G21KT P6SM SCT100=

USA.gov is the U.S. government's official web portal to all federal, state and local government web resources and services.